createdAt,value
2022-07-27T00:01:03.907Z,99583.63
2022-07-27T00:05:07.946Z,99581.00
2022-07-27T00:09:12.097Z,99586.47
2022-07-27T00:13:15.705Z,99572.28
2022-07-27T00:17:23.911Z,99574.91
2022-07-27T00:21:27.163Z,99579.28
2022-07-27T00:25:31.002Z,99573.97
2022-07-27T00:29:34.111Z,99562.31
2022-07-27T00:33:38.692Z,99556.09
2022-07-27T00:37:42.102Z,99552.50
2022-07-27T00:41:45.553Z,99555.13
2022-07-27T00:45:48.956Z,99577.41
2022-07-27T00:49:53.693Z,99573.91
2022-07-27T00:53:57.987Z,99567.69
2022-07-27T00:58:01.697Z,99568.69
2022-07-27T01:02:05.335Z,99569.69
2022-07-27T01:06:16.899Z,99583.91
2022-07-27T01:10:30.186Z,99577.66
2022-07-27T01:14:33.648Z,99576.78
2022-07-27T01:18:39.248Z,99579.53
2022-07-27T01:22:43.751Z,99577.88
2022-07-27T01:26:47.496Z,99576.19
2022-07-27T01:30:51.550Z,99581.72
2022-07-27T01:34:54.687Z,99579.03
2022-07-27T01:38:59.501Z,99576.25
2022-07-27T01:43:02.607Z,99575.44
2022-07-27T01:47:14.018Z,99578.13
2022-07-27T01:51:17.930Z,99571.91
2022-07-27T01:55:22.585Z,99571.91
2022-07-27T01:59:25.637Z,99570.09
2022-07-27T02:03:28.763Z,99564.63
2022-07-27T02:07:32.067Z,99568.09
2022-07-27T02:11:54.026Z,99558.41
2022-07-27T02:15:58.006Z,99555.78
2022-07-27T02:20:01.545Z,99566.50
2022-07-27T02:24:04.802Z,99549.53
2022-07-27T02:28:09.492Z,99552.28
2022-07-27T02:32:12.604Z,99549.75
2022-07-27T02:36:16.523Z,99548.06
2022-07-27T02:40:20.421Z,99543.75
2022-07-27T02:44:26.981Z,99552.81
2022-07-27T02:48:30.165Z,99551.22
2022-07-27T02:52:33.995Z,99549.47
2022-07-27T02:56:37.146Z,99548.72
2022-07-27T03:00:41.807Z,99546.28
2022-07-27T03:04:45.224Z,99540.19
2022-07-27T03:08:48.576Z,99544.63
2022-07-27T03:12:52.028Z,99545.53
2022-07-27T03:16:56.792Z,99561.59
2022-07-27T03:21:00.057Z,99556.28
2022-07-27T03:25:03.438Z,99554.47
2022-07-27T03:29:06.768Z,99567.91
2022-07-27T03:33:11.256Z,99567.22
2022-07-27T03:37:15.294Z,99564.84
2022-07-27T03:41:18.403Z,99564.94
2022-07-27T03:45:21.549Z,99572.19
2022-07-27T03:49:26.343Z,99566.81
2022-07-27T03:53:29.507Z,99566.81
2022-07-27T03:57:32.631Z,99570.41
2022-07-27T04:01:36.025Z,99572.19
2022-07-27T04:05:40.655Z,99572.19
2022-07-27T04:09:44.031Z,99569.50
2022-07-27T04:13:50.913Z,99573.03
2022-07-27T04:17:57.275Z,99573.91
2022-07-27T04:22:02.264Z,99582.88
2022-07-27T04:26:05.375Z,99582.88
2022-07-27T04:30:10.010Z,99591.75
2022-07-27T04:34:13.325Z,99589.94
2022-07-27T04:38:17.873Z,99591.75
2022-07-27T04:42:21.168Z,99595.41
2022-07-27T04:46:24.518Z,99588.34
2022-07-27T04:50:27.730Z,99588.22
2022-07-27T04:54:35.783Z,99591.69
2022-07-27T04:58:39.195Z,99596.09
2022-07-27T05:02:43.662Z,99599.44
2022-07-27T05:06:46.842Z,99596.66
2022-07-27T05:10:51.311Z,99600.00
2022-07-27T05:14:54.552Z,99603.38
2022-07-27T05:18:58.447Z,99601.38
2022-07-27T05:23:01.537Z,99609.97
2022-07-27T05:27:06.894Z,99597.09
2022-07-27T05:31:10.157Z,99599.34
2022-07-27T05:35:13.766Z,99606.78
2022-07-27T05:39:17.344Z,99616.84
2022-07-27T05:43:22.183Z,99617.84
2022-07-27T05:47:25.579Z,99614.47
2022-07-27T05:51:30.907Z,99616.53
2022-07-27T05:55:34.108Z,99619.72
2022-07-27T05:59:38.639Z,99617.41
2022-07-27T06:03:42.001Z,99621.94
2022-07-27T06:08:00.670Z,99627.13
2022-07-27T06:12:04.381Z,99632.41
2022-07-27T06:16:09.559Z,99630.66
2022-07-27T06:20:13.337Z,99639.69
2022-07-27T06:24:16.595Z,99645.00
2022-07-27T06:28:20.185Z,99634.31
2022-07-27T06:32:24.762Z,99640.47
2022-07-27T06:36:27.853Z,99636.91
2022-07-27T06:40:32.284Z,99640.47
2022-07-27T06:44:35.393Z,99640.22
2022-07-27T06:48:40.317Z,99642.22
2022-07-27T06:52:43.650Z,99637.94
2022-07-27T06:56:47.232Z,99633.53
2022-07-27T07:00:50.628Z,99641.44
2022-07-27T07:04:55.501Z,99625.78
2022-07-27T07:08:58.771Z,99631.06
2022-07-27T07:13:06.562Z,99628.34
2022-07-27T07:17:09.892Z,99621.38
2022-07-27T07:21:16.954Z,99615.09
2022-07-27T07:25:20.537Z,99623.59
2022-07-27T07:29:23.673Z,99621.50
2022-07-27T07:33:27.016Z,99614.22
2022-07-27T07:37:33.963Z,99616.66
2022-07-27T07:41:37.609Z,99615.69
2022-07-27T07:45:51.475Z,99616.34
2022-07-27T07:49:55.260Z,99606.66
2022-07-27T07:53:59.785Z,99610.38
2022-07-27T07:58:02.831Z,99611.19
2022-07-27T08:02:06.268Z,99612.53
2022-07-27T08:06:09.464Z,99613.47
2022-07-27T08:10:16.245Z,99607.50
2022-07-27T08:14:19.324Z,99597.63
2022-07-27T08:18:22.557Z,99599.06
2022-07-27T08:22:25.752Z,99607.56
2022-07-27T08:26:30.369Z,99613.91
2022-07-27T08:30:33.749Z,99610.28
2022-07-27T08:34:37.135Z,99605.78
2022-07-27T08:38:40.233Z,99603.13
2022-07-27T08:42:45.215Z,99600.75
2022-07-27T08:46:53.137Z,99598.34
2022-07-27T08:50:56.905Z,99594.81
2022-07-27T08:55:00.278Z,99604.50
2022-07-27T08:59:07.189Z,99594.56
2022-07-27T09:03:18.436Z,99597.81
2022-07-27T09:07:31.526Z,99596.13
2022-07-27T09:11:36.618Z,99591.38
2022-07-27T09:16:15.796Z,99597.09
2022-07-27T09:20:17.408Z,99601.31
2022-07-27T09:24:45.488Z,99599.91
2022-07-27T09:28:46.146Z,99599.53
2022-07-27T09:32:59.353Z,99598.53
2022-07-27T09:37:05.752Z,99585.84
2022-07-27T09:41:09.548Z,99589.34
2022-07-27T09:45:34.454Z,99595.66
2022-07-27T09:49:40.024Z,99585.28
2022-07-27T09:53:44.355Z,99584.13
2022-07-27T09:57:54.806Z,99589.72
2022-07-27T10:02:00.552Z,99593.91
2022-07-27T10:06:05.534Z,99591.50
2022-07-27T10:10:10.603Z,99601.47
2022-07-27T10:14:14.454Z,99600.56
2022-07-27T10:18:25.743Z,99600.84
2022-07-27T10:22:51.467Z,99593.56
2022-07-27T10:26:55.021Z,99588.88
2022-07-27T10:31:17.534Z,99582.81
2022-07-27T10:35:34.112Z,99587.47
2022-07-27T10:39:41.095Z,99583.09
2022-07-27T10:43:44.329Z,99577.03
2022-07-27T10:47:50.390Z,99589.81
2022-07-27T10:51:54.654Z,99588.59
2022-07-27T10:55:59.425Z,99592.25
2022-07-27T11:00:09.934Z,99582.72
2022-07-27T11:04:15.693Z,99578.78
2022-07-27T11:08:47.104Z,99568.69
2022-07-27T11:12:50.767Z,99572.03
2022-07-27T11:16:56.623Z,99581.78
2022-07-27T11:21:19.075Z,99571.63
2022-07-27T11:25:25.304Z,99567.34
2022-07-27T11:29:35.698Z,99570.25
2022-07-27T11:33:57.638Z,99578.94
2022-07-27T11:38:03.542Z,99578.28
2022-07-27T11:42:12.345Z,99575.28
2022-07-27T11:46:24.658Z,99577.66
2022-07-27T11:50:27.893Z,99583.53
2022-07-27T11:54:33.246Z,99590.72
2022-07-27T11:59:15.856Z,99599.91
2022-07-27T12:03:32.221Z,99593.72
2022-07-27T12:07:49.406Z,99609.44
2022-07-27T12:12:03.539Z,99619.25
2022-07-27T12:16:07.893Z,99609.50
2022-07-27T12:20:14.164Z,99607.63
2022-07-27T12:24:18.004Z,99600.94
2022-07-27T12:28:25.697Z,99594.16
2022-07-27T12:32:31.024Z,99591.34
2022-07-27T12:36:42.435Z,99579.88
2022-07-27T12:40:48.318Z,99568.84
2022-07-27T12:44:53.426Z,99569.63
2022-07-27T12:48:56.882Z,99555.91
2022-07-27T12:53:01.886Z,99555.50
2022-07-27T12:57:05.374Z,99559.41
2022-07-27T13:01:08.684Z,99566.44
2022-07-27T13:05:13.711Z,99576.81
2022-07-27T13:09:18.442Z,99572.09
2022-07-27T13:13:24.540Z,99573.28
2022-07-27T13:17:28.064Z,99571.97
2022-07-27T13:21:31.458Z,99567.94
2022-07-27T13:25:41.091Z,99567.94
2022-07-27T13:29:46.817Z,99576.59
2022-07-27T13:33:50.012Z,99586.31
2022-07-27T13:37:53.391Z,99578.31
2022-07-27T13:41:58.382Z,99586.66
2022-07-27T13:46:03.302Z,99591.25
2022-07-27T13:50:15.052Z,99596.16
2022-07-27T13:54:20.442Z,99582.13
2022-07-27T13:58:25.001Z,99593.00
2022-07-27T14:02:28.221Z,99586.44
2022-07-27T14:06:31.575Z,99579.09
2022-07-27T14:10:41.660Z,99571.75
2022-07-27T14:14:46.175Z,99562.72
2022-07-27T14:18:49.445Z,99568.09
2022-07-27T14:22:52.819Z,99559.16
2022-07-27T14:26:57.594Z,99570.06
2022-07-27T14:31:05.274Z,99582.78
2022-07-27T14:35:10.797Z,99590.31
2022-07-27T14:39:14.495Z,99592.44
2022-07-27T14:43:18.687Z,99599.00
2022-07-27T14:47:23.402Z,99598.41
2022-07-27T14:51:26.544Z,99601.53
2022-07-27T14:55:29.680Z,99591.78
2022-07-27T14:59:33.091Z,99587.56
2022-07-27T15:03:37.901Z,99593.16
2022-07-27T15:07:41.757Z,99586.31
2022-07-27T15:11:44.865Z,99586.59
2022-07-27T15:15:49.547Z,99584.97
2022-07-27T15:19:54.252Z,99577.06
2022-07-27T15:23:57.604Z,99575.53
2022-07-27T15:28:00.832Z,99557.81
2022-07-27T15:32:04.635Z,99558.69
2022-07-27T15:36:09.346Z,99550.69
2022-07-27T15:40:30.061Z,99548.94
2022-07-27T15:44:33.745Z,99555.00
2022-07-27T15:48:37.251Z,99544.22
2022-07-27T15:52:42.048Z,99544.31
2022-07-27T15:56:45.189Z,99533.69
2022-07-27T16:00:50.125Z,99536.38
2022-07-27T16:04:54.483Z,99536.38
2022-07-27T16:08:59.229Z,99524.84
2022-07-27T16:13:02.916Z,99532.34
2022-07-27T16:17:06.341Z,99526.97
2022-07-27T16:21:09.513Z,99526.00
2022-07-27T16:25:14.282Z,99535.28
2022-07-27T16:29:18.300Z,99544.31
2022-07-27T16:33:21.810Z,99541.78
2022-07-27T16:37:25.124Z,99527.56
2022-07-27T16:41:29.900Z,99525.81
2022-07-27T16:45:33.588Z,99535.72
2022-07-27T16:49:37.209Z,99539.28
2022-07-27T16:53:42.356Z,99536.50
2022-07-27T16:57:46.946Z,99538.34
2022-07-27T17:01:51.303Z,99553.34
2022-07-27T17:05:54.582Z,99565.50
2022-07-27T17:09:57.909Z,99567.03
2022-07-27T17:14:02.731Z,99569.66
2022-07-27T17:18:07.007Z,99576.69
2022-07-27T17:22:11.060Z,99575.53
2022-07-27T17:26:14.832Z,99565.63
2022-07-27T17:30:19.935Z,99563.78
2022-07-27T17:34:23.259Z,99567.47
2022-07-27T17:38:26.335Z,99574.00
2022-07-27T17:42:29.651Z,99569.56
2022-07-27T17:46:38.662Z,99562.44
2022-07-27T17:51:03.596Z,99563.34
2022-07-27T17:55:10.230Z,99557.97
2022-07-27T17:59:36.038Z,99563.56
2022-07-27T18:03:38.144Z,99563.94
2022-07-27T18:07:41.276Z,99579.63
2022-07-27T18:11:44.785Z,99588.78
2022-07-27T18:15:48.515Z,99587.44
2022-07-27T18:19:53.254Z,99577.13
2022-07-27T18:23:57.580Z,99583.00
2022-07-27T18:28:01.366Z,99593.19
2022-07-27T18:32:04.485Z,99615.59
2022-07-27T18:36:09.544Z,99619.44
2022-07-27T18:40:13.363Z,99625.28
2022-07-27T18:44:16.457Z,99626.59
2022-07-27T18:48:19.723Z,99635.97
2022-07-27T18:52:24.671Z,99637.94
2022-07-27T18:56:27.791Z,99652.34
2022-07-27T19:00:31.392Z,99655.66
2022-07-27T19:04:35.070Z,99656.28
2022-07-27T19:08:41.476Z,99672.06
2022-07-27T19:12:45.581Z,99678.78
2022-07-27T19:16:48.710Z,99687.19
2022-07-27T19:20:51.932Z,99697.59
2022-07-27T19:24:56.581Z,99696.19
2022-07-27T19:29:00.192Z,99712.63
2022-07-27T19:33:04.307Z,99714.78
2022-07-27T19:37:07.895Z,99717.81
2022-07-27T19:41:12.921Z,99723.50
2022-07-27T19:45:16.144Z,99730.94
2022-07-27T19:49:19.413Z,99729.50
2022-07-27T19:53:22.822Z,99731.69
2022-07-27T19:57:27.624Z,99742.75
2022-07-27T20:01:31.055Z,99748.44
2022-07-27T20:05:34.861Z,99743.38
2022-07-27T20:09:38.244Z,99748.19
2022-07-27T20:13:43.016Z,99753.84
2022-07-27T20:17:46.661Z,99759.63
2022-07-27T20:21:49.799Z,99761.59
2022-07-27T20:25:53.010Z,99759.13
2022-07-27T20:29:57.731Z,99760.38
2022-07-27T20:34:01.335Z,99751.66
2022-07-27T20:38:04.845Z,99763.50
2022-07-27T20:42:08.478Z,99756.53
2022-07-27T20:46:13.252Z,99773.75
2022-07-27T20:50:19.196Z,99764.19
2022-07-27T20:54:29.537Z,99757.53
2022-07-27T20:58:34.798Z,99765.06
2022-07-27T21:02:40.017Z,99753.00
2022-07-27T21:06:44.596Z,99760.69
2022-07-27T21:10:48.315Z,99758.28
2022-07-27T21:14:53.022Z,99767.69
2022-07-27T21:18:57.994Z,99776.81
2022-07-27T21:23:18.575Z,99777.88
2022-07-27T21:27:21.779Z,99774.38
2022-07-27T21:31:25.090Z,99788.75
2022-07-27T21:35:30.023Z,99804.00
2022-07-27T21:39:33.381Z,99810.41
2022-07-27T21:43:36.668Z,99815.06
2022-07-27T21:47:39.735Z,99825.91
2022-07-27T21:51:44.526Z,99825.22
2022-07-27T21:55:47.941Z,99822.59
2022-07-27T21:59:51.072Z,99825.50
2022-07-27T22:03:54.533Z,99820.31
2022-07-27T22:08:00.238Z,99823.06
2022-07-27T22:12:03.481Z,99826.09
2022-07-27T22:16:07.577Z,99825.47
2022-07-27T22:20:12.153Z,99838.19
2022-07-27T22:24:17.226Z,99825.09
2022-07-27T22:28:24.299Z,99823.59
2022-07-27T22:32:29.494Z,99831.97
2022-07-27T22:36:33.529Z,99827.59
2022-07-27T22:40:38.115Z,99819.75
2022-07-27T22:44:42.460Z,99822.59
2022-07-27T22:48:45.698Z,99823.59
2022-07-27T22:52:49.432Z,99831.69
2022-07-27T22:56:54.569Z,99830.19
2022-07-27T23:00:59.869Z,99832.97
2022-07-27T23:05:03.321Z,99828.66
2022-07-27T23:09:06.730Z,99836.75
2022-07-27T23:13:12.202Z,99835.06
2022-07-27T23:17:15.507Z,99843.09
2022-07-27T23:21:18.859Z,99837.75
2022-07-27T23:25:22.196Z,99844.97
2022-07-27T23:29:27.119Z,99841.53
2022-07-27T23:33:30.390Z,99852.41
2022-07-27T23:37:33.527Z,99845.44
2022-07-27T23:41:36.957Z,99846.72
2022-07-27T23:45:41.454Z,99841.47
2022-07-27T23:49:44.681Z,99846.13
2022-07-27T23:53:48.126Z,99842.75
2022-07-27T23:57:51.314Z,99837.56
